sensor_id;sensor_type;location;lat;lon;timestamp;P1;durP1;ratioP1;P2;durP2;ratioP2
74658;SDS011;63186;51.204;6.536;2022-12-29T00:01:45;0.80;;;0.60;;
74658;SDS011;63186;51.204;6.536;2022-12-29T00:04:14;1.40;;;0.83;;
74658;SDS011;63186;51.204;6.536;2022-12-29T00:06:39;1.77;;;1.13;;
74658;SDS011;63186;51.204;6.536;2022-12-29T00:09:05;2.03;;;1.00;;
74658;SDS011;63186;51.204;6.536;2022-12-29T00:11:30;2.57;;;1.20;;
74658;SDS011;63186;51.204;6.536;2022-12-29T00:13:55;2.23;;;1.10;;
74658;SDS011;63186;51.204;6.536;2022-12-29T00:16:43;0.82;;;0.80;;
74658;SDS011;63186;51.204;6.536;2022-12-29T00:19:10;1.65;;;0.82;;
74658;SDS011;63186;51.204;6.536;2022-12-29T00:21:56;3.42;;;0.93;;
74658;SDS011;63186;51.204;6.536;2022-12-29T00:24:40;1.02;;;0.80;;
74658;SDS011;63186;51.204;6.536;2022-12-29T00:27:25;2.22;;;1.00;;
74658;SDS011;63186;51.204;6.536;2022-12-29T00:30:09;2.25;;;1.00;;
74658;SDS011;63186;51.204;6.536;2022-12-29T00:32:55;2.28;;;0.85;;
74658;SDS011;63186;51.204;6.536;2022-12-29T00:35:39;1.25;;;0.80;;
74658;SDS011;63186;51.204;6.536;2022-12-29T00:38:10;1.88;;;0.80;;
74658;SDS011;63186;51.204;6.536;2022-12-29T00:40:55;0.52;;;0.52;;
74658;SDS011;63186;51.204;6.536;2022-12-29T00:43:39;1.05;;;0.57;;
74658;SDS011;63186;51.204;6.536;2022-12-29T00:46:22;1.80;;;0.68;;
74658;SDS011;63186;51.204;6.536;2022-12-29T00:48:48;0.50;;;0.50;;
74658;SDS011;63186;51.204;6.536;2022-12-29T00:51:32;2.70;;;0.85;;
74658;SDS011;63186;51.204;6.536;2022-12-29T00:53:57;1.50;;;0.93;;
74658;SDS011;63186;51.204;6.536;2022-12-29T00:56:22;1.10;;;0.40;;
74658;SDS011;63186;51.204;6.536;2022-12-29T00:58:47;1.40;;;0.43;;
74658;SDS011;63186;51.204;6.536;2022-12-29T01:01:13;0.40;;;0.40;;
74658;SDS011;63186;51.204;6.536;2022-12-29T01:03:38;1.53;;;0.60;;
74658;SDS011;63186;51.204;6.536;2022-12-29T01:06:09;0.60;;;0.60;;
74658;SDS011;63186;51.204;6.536;2022-12-29T01:08:35;0.45;;;0.45;;
74658;SDS011;63186;51.204;6.536;2022-12-29T01:11:01;0.63;;;0.55;;
74658;SDS011;63186;51.204;6.536;2022-12-29T01:13:28;0.50;;;0.50;;
74658;SDS011;63186;51.204;6.536;2022-12-29T01:15:54;0.57;;;0.50;;
74658;SDS011;63186;51.204;6.536;2022-12-29T01:18:20;0.75;;;0.47;;
74658;SDS011;63186;51.204;6.536;2022-12-29T01:20:45;0.98;;;0.50;;
74658;SDS011;63186;51.204;6.536;2022-12-29T01:23:11;0.43;;;0.43;;
74658;SDS011;63186;51.204;6.536;2022-12-29T01:25:36;0.30;;;0.30;;
74658;SDS011;63186;51.204;6.536;2022-12-29T01:28:01;2.03;;;0.80;;
74658;SDS011;63186;51.204;6.536;2022-12-29T01:30:27;0.40;;;0.30;;
74658;SDS011;63186;51.204;6.536;2022-12-29T01:32:52;0.83;;;0.40;;
74658;SDS011;63186;51.204;6.536;2022-12-29T01:35:17;2.20;;;0.43;;
74658;SDS011;63186;51.204;6.536;2022-12-29T01:37:42;2.00;;;0.60;;
74658;SDS011;63186;51.204;6.536;2022-12-29T01:40:08;0.73;;;0.43;;
74658;SDS011;63186;51.204;6.536;2022-12-29T01:42:34;0.60;;;0.60;;
74658;SDS011;63186;51.204;6.536;2022-12-29T01:45:04;0.73;;;0.60;;
74658;SDS011;63186;51.204;6.536;2022-12-29T01:47:44;0.57;;;0.40;;
74658;SDS011;63186;51.204;6.536;2022-12-29T01:53:02;3.10;;;0.63;;
74658;SDS011;63186;51.204;6.536;2022-12-29T01:55:32;1.38;;;0.80;;
74658;SDS011;63186;51.204;6.536;2022-12-29T01:58:01;1.65;;;1.00;;
74658;SDS011;63186;51.204;6.536;2022-12-29T02:00:29;2.05;;;0.63;;
74658;SDS011;63186;51.204;6.536;2022-12-29T02:02:55;2.35;;;0.60;;
74658;SDS011;63186;51.204;6.536;2022-12-29T02:05:27;1.03;;;0.70;;
74658;SDS011;63186;51.204;6.536;2022-12-29T02:07:59;2.28;;;0.80;;
74658;SDS011;63186;51.204;6.536;2022-12-29T02:10:26;0.70;;;0.70;;
74658;SDS011;63186;51.204;6.536;2022-12-29T02:12:54;3.28;;;0.80;;
74658;SDS011;63186;51.204;6.536;2022-12-29T02:15:22;2.00;;;0.80;;
74658;SDS011;63186;51.204;6.536;2022-12-29T02:18:32;4.15;;;0.77;;
74658;SDS011;63186;51.204;6.536;2022-12-29T02:21:23;1.40;;;0.70;;
74658;SDS011;63186;51.204;6.536;2022-12-29T02:32:31;1.95;;;0.80;;
74658;SDS011;63186;51.204;6.536;2022-12-29T02:38:03;1.60;;;1.20;;
74658;SDS011;63186;51.204;6.536;2022-12-29T02:40:37;2.67;;;1.00;;
74658;SDS011;63186;51.204;6.536;2022-12-29T02:48:46;2.70;;;0.77;;
74658;SDS011;63186;51.204;6.536;2022-12-29T02:51:23;1.95;;;1.40;;
74658;SDS011;63186;51.204;6.536;2022-12-29T02:53:53;4.60;;;1.10;;
74658;SDS011;63186;51.204;6.536;2022-12-29T02:56:40;3.25;;;1.08;;
74658;SDS011;63186;51.204;6.536;2022-12-29T02:59:05;1.20;;;0.93;;
74658;SDS011;63186;51.204;6.536;2022-12-29T03:04:16;1.08;;;0.77;;
74658;SDS011;63186;51.204;6.536;2022-12-29T03:07:01;2.72;;;1.00;;
74658;SDS011;63186;51.204;6.536;2022-12-29T03:09:37;0.52;;;0.52;;
74658;SDS011;63186;51.204;6.536;2022-12-29T03:12:24;2.53;;;1.42;;
74658;SDS011;63186;51.204;6.536;2022-12-29T03:15:12;1.15;;;0.70;;
74658;SDS011;63186;51.204;6.536;2022-12-29T03:18:05;1.95;;;1.30;;
74658;SDS011;63186;51.204;6.536;2022-12-29T03:20:38;1.27;;;0.57;;
74658;SDS011;63186;51.204;6.536;2022-12-29T03:23:09;1.35;;;0.70;;
74658;SDS011;63186;51.204;6.536;2022-12-29T03:25:37;2.08;;;0.73;;
74658;SDS011;63186;51.204;6.536;2022-12-29T03:28:08;2.55;;;1.08;;
74658;SDS011;63186;51.204;6.536;2022-12-29T03:30:37;1.42;;;0.63;;
74658;SDS011;63186;51.204;6.536;2022-12-29T03:33:07;1.35;;;0.52;;
74658;SDS011;63186;51.204;6.536;2022-12-29T03:35:36;1.13;;;0.80;;
74658;SDS011;63186;51.204;6.536;2022-12-29T03:38:09;1.20;;;0.60;;
74658;SDS011;63186;51.204;6.536;2022-12-29T03:40:39;2.22;;;0.85;;
74658;SDS011;63186;51.204;6.536;2022-12-29T03:43:08;1.23;;;0.82;;
74658;SDS011;63186;51.204;6.536;2022-12-29T03:45:34;1.70;;;0.50;;
74658;SDS011;63186;51.204;6.536;2022-12-29T03:48:00;1.83;;;0.70;;
74658;SDS011;63186;51.204;6.536;2022-12-29T03:50:25;2.08;;;0.60;;
74658;SDS011;63186;51.204;6.536;2022-12-29T03:52:50;2.10;;;0.70;;
74658;SDS011;63186;51.204;6.536;2022-12-29T03:55:16;1.77;;;0.80;;
74658;SDS011;63186;51.204;6.536;2022-12-29T03:57:41;1.80;;;0.80;;
74658;SDS011;63186;51.204;6.536;2022-12-29T04:00:06;1.00;;;0.60;;
74658;SDS011;63186;51.204;6.536;2022-12-29T04:02:33;0.55;;;0.52;;
74658;SDS011;63186;51.204;6.536;2022-12-29T04:04:58;2.07;;;0.80;;
74658;SDS011;63186;51.204;6.536;2022-12-29T04:07:23;1.13;;;0.67;;
74658;SDS011;63186;51.204;6.536;2022-12-29T04:09:48;1.17;;;0.60;;
74658;SDS011;63186;51.204;6.536;2022-12-29T04:12:14;1.10;;;0.60;;
74658;SDS011;63186;51.204;6.536;2022-12-29T04:14:39;1.13;;;0.50;;
74658;SDS011;63186;51.204;6.536;2022-12-29T04:17:05;0.95;;;0.80;;
74658;SDS011;63186;51.204;6.536;2022-12-29T04:19:30;0.63;;;0.57;;
74658;SDS011;63186;51.204;6.536;2022-12-29T04:21:55;0.70;;;0.60;;
74658;SDS011;63186;51.204;6.536;2022-12-29T04:24:20;2.23;;;0.80;;
74658;SDS011;63186;51.204;6.536;2022-12-29T04:26:46;1.80;;;0.73;;
74658;SDS011;63186;51.204;6.536;2022-12-29T04:29:11;0.93;;;0.63;;
74658;SDS011;63186;51.204;6.536;2022-12-29T04:31:36;1.47;;;1.00;;
74658;SDS011;63186;51.204;6.536;2022-12-29T04:34:01;1.57;;;0.70;;
74658;SDS011;63186;51.204;6.536;2022-12-29T04:36:27;1.50;;;0.50;;
74658;SDS011;63186;51.204;6.536;2022-12-29T04:38:52;1.30;;;0.80;;
74658;SDS011;63186;51.204;6.536;2022-12-29T04:41:17;1.30;;;0.70;;
74658;SDS011;63186;51.204;6.536;2022-12-29T04:43:42;1.40;;;0.90;;
74658;SDS011;63186;51.204;6.536;2022-12-29T04:46:08;1.00;;;0.73;;
74658;SDS011;63186;51.204;6.536;2022-12-29T04:48:33;2.17;;;0.87;;
74658;SDS011;63186;51.204;6.536;2022-12-29T04:50:58;1.93;;;0.93;;
74658;SDS011;63186;51.204;6.536;2022-12-29T04:53:24;4.47;;;1.00;;
74658;SDS011;63186;51.204;6.536;2022-12-29T04:55:49;2.07;;;0.70;;
74658;SDS011;63186;51.204;6.536;2022-12-29T04:58:16;0.70;;;0.65;;
74658;SDS011;63186;51.204;6.536;2022-12-29T05:00:41;3.38;;;0.82;;
74658;SDS011;63186;51.204;6.536;2022-12-29T05:03:07;0.85;;;0.80;;
74658;SDS011;63186;51.204;6.536;2022-12-29T05:05:33;1.13;;;0.93;;
74658;SDS011;63186;51.204;6.536;2022-12-29T05:07:58;2.33;;;0.90;;
74658;SDS011;63186;51.204;6.536;2022-12-29T05:10:23;1.10;;;0.70;;
74658;SDS011;63186;51.204;6.536;2022-12-29T05:12:49;1.73;;;0.80;;
74658;SDS011;63186;51.204;6.536;2022-12-29T05:15:14;0.73;;;0.70;;
74658;SDS011;63186;51.204;6.536;2022-12-29T05:17:39;1.97;;;1.00;;
74658;SDS011;63186;51.204;6.536;2022-12-29T05:20:05;2.63;;;0.90;;
74658;SDS011;63186;51.204;6.536;2022-12-29T05:22:30;3.10;;;0.85;;
74658;SDS011;63186;51.204;6.536;2022-12-29T05:24:56;3.20;;;0.90;;
74658;SDS011;63186;51.204;6.536;2022-12-29T05:27:21;2.47;;;0.85;;
74658;SDS011;63186;51.204;6.536;2022-12-29T05:29:46;1.13;;;0.60;;
74658;SDS011;63186;51.204;6.536;2022-12-29T05:32:12;2.43;;;0.87;;
74658;SDS011;63186;51.204;6.536;2022-12-29T05:34:40;3.80;;;1.00;;
74658;SDS011;63186;51.204;6.536;2022-12-29T05:37:05;4.87;;;1.00;;
74658;SDS011;63186;51.204;6.536;2022-12-29T05:39:30;3.97;;;0.90;;
74658;SDS011;63186;51.204;6.536;2022-12-29T05:41:55;1.27;;;0.57;;
74658;SDS011;63186;51.204;6.536;2022-12-29T05:44:21;2.28;;;0.90;;
74658;SDS011;63186;51.204;6.536;2022-12-29T05:46:46;4.63;;;1.00;;
74658;SDS011;63186;51.204;6.536;2022-12-29T05:49:11;1.70;;;0.70;;
74658;SDS011;63186;51.204;6.536;2022-12-29T05:51:37;1.60;;;0.83;;
74658;SDS011;63186;51.204;6.536;2022-12-29T05:54:02;1.40;;;0.87;;
74658;SDS011;63186;51.204;6.536;2022-12-29T05:56:27;1.90;;;0.60;;
74658;SDS011;63186;51.204;6.536;2022-12-29T05:58:53;2.97;;;0.77;;
74658;SDS011;63186;51.204;6.536;2022-12-29T06:01:18;0.60;;;0.60;;
74658;SDS011;63186;51.204;6.536;2022-12-29T06:03:43;3.07;;;0.90;;
74658;SDS011;63186;51.204;6.536;2022-12-29T06:06:08;1.77;;;0.77;;
74658;SDS011;63186;51.204;6.536;2022-12-29T06:08:34;3.77;;;0.87;;
74658;SDS011;63186;51.204;6.536;2022-12-29T06:10:59;2.10;;;0.87;;
74658;SDS011;63186;51.204;6.536;2022-12-29T06:13:24;1.60;;;0.77;;
74658;SDS011;63186;51.204;6.536;2022-12-29T06:15:50;2.50;;;0.80;;
74658;SDS011;63186;51.204;6.536;2022-12-29T06:18:15;2.20;;;0.80;;
74658;SDS011;63186;51.204;6.536;2022-12-29T06:20:41;2.83;;;0.70;;
74658;SDS011;63186;51.204;6.536;2022-12-29T06:23:06;2.37;;;0.83;;
74658;SDS011;63186;51.204;6.536;2022-12-29T06:25:31;4.63;;;1.20;;
74658;SDS011;63186;51.204;6.536;2022-12-29T06:27:58;2.53;;;1.30;;
74658;SDS011;63186;51.204;6.536;2022-12-29T06:30:23;4.07;;;1.10;;
74658;SDS011;63186;51.204;6.536;2022-12-29T06:32:49;2.27;;;0.97;;
74658;SDS011;63186;51.204;6.536;2022-12-29T06:35:14;1.60;;;0.57;;
74658;SDS011;63186;51.204;6.536;2022-12-29T06:37:39;3.22;;;0.70;;
74658;SDS011;63186;51.204;6.536;2022-12-29T06:40:05;3.30;;;0.60;;
74658;SDS011;63186;51.204;6.536;2022-12-29T06:42:30;2.55;;;0.70;;
74658;SDS011;63186;51.204;6.536;2022-12-29T06:44:55;3.23;;;0.80;;
74658;SDS011;63186;51.204;6.536;2022-12-29T06:47:23;5.45;;;1.08;;
74658;SDS011;63186;51.204;6.536;2022-12-29T06:49:49;1.85;;;1.10;;
74658;SDS011;63186;51.204;6.536;2022-12-29T06:52:14;1.75;;;0.93;;
74658;SDS011;63186;51.204;6.536;2022-12-29T06:54:40;2.70;;;0.68;;
74658;SDS011;63186;51.204;6.536;2022-12-29T06:57:05;3.30;;;0.70;;
74658;SDS011;63186;51.204;6.536;2022-12-29T06:59:30;3.47;;;0.80;;
74658;SDS011;63186;51.204;6.536;2022-12-29T07:01:56;3.47;;;0.83;;
74658;SDS011;63186;51.204;6.536;2022-12-29T07:04:21;1.83;;;0.80;;
74658;SDS011;63186;51.204;6.536;2022-12-29T07:06:46;3.13;;;1.17;;
74658;SDS011;63186;51.204;6.536;2022-12-29T07:09:12;4.00;;;0.70;;
74658;SDS011;63186;51.204;6.536;2022-12-29T07:11:37;2.37;;;0.83;;
74658;SDS011;63186;51.204;6.536;2022-12-29T07:14:02;5.30;;;0.97;;
74658;SDS011;63186;51.204;6.536;2022-12-29T07:16:28;2.35;;;0.45;;
74658;SDS011;63186;51.204;6.536;2022-12-29T07:18:55;4.40;;;0.73;;
74658;SDS011;63186;51.204;6.536;2022-12-29T07:21:21;3.53;;;1.30;;
74658;SDS011;63186;51.204;6.536;2022-12-29T07:23:46;3.93;;;0.90;;
74658;SDS011;63186;51.204;6.536;2022-12-29T07:26:12;7.13;;;1.20;;
74658;SDS011;63186;51.204;6.536;2022-12-29T07:28:39;5.20;;;1.23;;
74658;SDS011;63186;51.204;6.536;2022-12-29T07:31:05;5.38;;;1.20;;
74658;SDS011;63186;51.204;6.536;2022-12-29T07:33:31;4.30;;;0.75;;
74658;SDS011;63186;51.204;6.536;2022-12-29T07:35:57;4.70;;;0.85;;
74658;SDS011;63186;51.204;6.536;2022-12-29T07:38:23;5.63;;;1.30;;
74658;SDS011;63186;51.204;6.536;2022-12-29T07:40:48;5.27;;;1.07;;
74658;SDS011;63186;51.204;6.536;2022-12-29T07:43:14;3.23;;;1.03;;
74658;SDS011;63186;51.204;6.536;2022-12-29T07:45:39;5.00;;;1.08;;
74658;SDS011;63186;51.204;6.536;2022-12-29T07:48:05;6.00;;;0.90;;
74658;SDS011;63186;51.204;6.536;2022-12-29T07:50:33;4.82;;;1.15;;
74658;SDS011;63186;51.204;6.536;2022-12-29T07:52:58;5.05;;;1.33;;
74658;SDS011;63186;51.204;6.536;2022-12-29T07:55:24;6.47;;;1.30;;
74658;SDS011;63186;51.204;6.536;2022-12-29T07:57:49;4.60;;;0.90;;
74658;SDS011;63186;51.204;6.536;2022-12-29T08:00:14;1.97;;;0.50;;
74658;SDS011;63186;51.204;6.536;2022-12-29T08:02:40;4.68;;;0.90;;
74658;SDS011;63186;51.204;6.536;2022-12-29T08:05:05;3.43;;;1.17;;
74658;SDS011;63186;51.204;6.536;2022-12-29T08:07:34;4.38;;;0.70;;
74658;SDS011;63186;51.204;6.536;2022-12-29T08:09:59;4.37;;;1.13;;
74658;SDS011;63186;51.204;6.536;2022-12-29T08:12:24;4.33;;;1.03;;
74658;SDS011;63186;51.204;6.536;2022-12-29T08:14:49;10.33;;;1.50;;
74658;SDS011;63186;51.204;6.536;2022-12-29T08:17:15;3.10;;;0.70;;
74658;SDS011;63186;51.204;6.536;2022-12-29T08:19:40;1.93;;;0.80;;
74658;SDS011;63186;51.204;6.536;2022-12-29T08:22:07;4.03;;;1.10;;
74658;SDS011;63186;51.204;6.536;2022-12-29T08:24:32;7.67;;;1.60;;
74658;SDS011;63186;51.204;6.536;2022-12-29T08:26:57;3.20;;;0.90;;
74658;SDS011;63186;51.204;6.536;2022-12-29T08:29:23;2.73;;;0.83;;
74658;SDS011;63186;51.204;6.536;2022-12-29T08:31:48;5.15;;;1.00;;
74658;SDS011;63186;51.204;6.536;2022-12-29T08:34:13;5.93;;;1.20;;
74658;SDS011;63186;51.204;6.536;2022-12-29T08:36:39;4.55;;;1.10;;
74658;SDS011;63186;51.204;6.536;2022-12-29T08:39:04;3.57;;;1.43;;
74658;SDS011;63186;51.204;6.536;2022-12-29T08:41:30;4.50;;;0.90;;
74658;SDS011;63186;51.204;6.536;2022-12-29T08:43:55;4.13;;;0.90;;
74658;SDS011;63186;51.204;6.536;2022-12-29T08:46:20;4.65;;;1.10;;
74658;SDS011;63186;51.204;6.536;2022-12-29T08:48:46;4.30;;;0.80;;
74658;SDS011;63186;51.204;6.536;2022-12-29T08:51:11;3.73;;;0.97;;
74658;SDS011;63186;51.204;6.536;2022-12-29T08:53:36;6.07;;;1.40;;
74658;SDS011;63186;51.204;6.536;2022-12-29T08:56:02;2.83;;;0.83;;
74658;SDS011;63186;51.204;6.536;2022-12-29T08:58:27;7.03;;;2.65;;
74658;SDS011;63186;51.204;6.536;2022-12-29T09:00:56;6.90;;;1.73;;
74658;SDS011;63186;51.204;6.536;2022-12-29T09:03:22;6.30;;;1.10;;
74658;SDS011;63186;51.204;6.536;2022-12-29T09:05:49;3.75;;;0.95;;
74658;SDS011;63186;51.204;6.536;2022-12-29T09:08:15;4.32;;;0.90;;
74658;SDS011;63186;51.204;6.536;2022-12-29T09:10:41;5.38;;;1.15;;
74658;SDS011;63186;51.204;6.536;2022-12-29T09:13:06;3.63;;;1.27;;
74658;SDS011;63186;51.204;6.536;2022-12-29T09:15:31;4.77;;;0.93;;
74658;SDS011;63186;51.204;6.536;2022-12-29T09:17:57;7.80;;;1.10;;
74658;SDS011;63186;51.204;6.536;2022-12-29T09:20:22;7.03;;;1.57;;
74658;SDS011;63186;51.204;6.536;2022-12-29T09:22:48;4.70;;;1.02;;
74658;SDS011;63186;51.204;6.536;2022-12-29T09:25:14;5.47;;;1.23;;
74658;SDS011;63186;51.204;6.536;2022-12-29T09:27:40;6.30;;;1.17;;
74658;SDS011;63186;51.204;6.536;2022-12-29T09:30:06;2.53;;;0.80;;
74658;SDS011;63186;51.204;6.536;2022-12-29T09:32:35;5.32;;;1.45;;
74658;SDS011;63186;51.204;6.536;2022-12-29T09:35:00;8.30;;;1.13;;
74658;SDS011;63186;51.204;6.536;2022-12-29T09:37:26;6.10;;;0.95;;
74658;SDS011;63186;51.204;6.536;2022-12-29T09:39:51;3.67;;;0.90;;
74658;SDS011;63186;51.204;6.536;2022-12-29T09:45:04;6.53;;;1.52;;
74658;SDS011;63186;51.204;6.536;2022-12-29T09:47:36;6.13;;;1.42;;
74658;SDS011;63186;51.204;6.536;2022-12-29T09:50:03;6.57;;;0.82;;
74658;SDS011;63186;51.204;6.536;2022-12-29T09:52:37;6.82;;;1.48;;
74658;SDS011;63186;51.204;6.536;2022-12-29T09:55:10;5.07;;;1.05;;
74658;SDS011;63186;51.204;6.536;2022-12-29T10:00:19;5.13;;;1.13;;
74658;SDS011;63186;51.204;6.536;2022-12-29T10:02:48;5.38;;;1.08;;
74658;SDS011;63186;51.204;6.536;2022-12-29T10:10:48;4.35;;;1.10;;
74658;SDS011;63186;51.204;6.536;2022-12-29T10:16:20;5.10;;;1.05;;
74658;SDS011;63186;51.204;6.536;2022-12-29T10:24:22;9.10;;;0.93;;
74658;SDS011;63186;51.204;6.536;2022-12-29T10:26:47;7.60;;;0.90;;
74658;SDS011;63186;51.204;6.536;2022-12-29T10:29:18;5.38;;;1.25;;
74658;SDS011;63186;51.204;6.536;2022-12-29T10:32:04;4.70;;;1.20;;
74658;SDS011;63186;51.204;6.536;2022-12-29T10:34:39;6.13;;;1.15;;
74658;SDS011;63186;51.204;6.536;2022-12-29T10:37:14;4.57;;;1.33;;
74658;SDS011;63186;51.204;6.536;2022-12-29T10:39:53;4.68;;;1.00;;
74658;SDS011;63186;51.204;6.536;2022-12-29T10:42:27;7.45;;;1.77;;
74658;SDS011;63186;51.204;6.536;2022-12-29T10:44:57;7.15;;;1.25;;
74658;SDS011;63186;51.204;6.536;2022-12-29T10:47:24;7.68;;;1.90;;
74658;SDS011;63186;51.204;6.536;2022-12-29T10:49:54;6.55;;;1.08;;
74658;SDS011;63186;51.204;6.536;2022-12-29T10:52:23;4.60;;;1.20;;
74658;SDS011;63186;51.204;6.536;2022-12-29T10:55:03;4.65;;;1.27;;
74658;SDS011;63186;51.204;6.536;2022-12-29T10:57:44;4.20;;;1.20;;
74658;SDS011;63186;51.204;6.536;2022-12-29T11:00:14;3.80;;;1.20;;
74658;SDS011;63186;51.204;6.536;2022-12-29T11:02:51;8.43;;;1.17;;
74658;SDS011;63186;51.204;6.536;2022-12-29T11:08:12;2.15;;;0.77;;
74658;SDS011;63186;51.204;6.536;2022-12-29T11:10:43;6.70;;;1.13;;
74658;SDS011;63186;51.204;6.536;2022-12-29T11:13:14;7.13;;;1.60;;
74658;SDS011;63186;51.204;6.536;2022-12-29T11:15:48;7.28;;;1.00;;
74658;SDS011;63186;51.204;6.536;2022-12-29T11:18:22;5.82;;;1.65;;
74658;SDS011;63186;51.204;6.536;2022-12-29T11:20:50;5.13;;;1.67;;
74658;SDS011;63186;51.204;6.536;2022-12-29T11:28:40;5.35;;;1.00;;
74658;SDS011;63186;51.204;6.536;2022-12-29T11:31:07;6.70;;;1.25;;
74658;SDS011;63186;51.204;6.536;2022-12-29T11:33:34;6.50;;;1.20;;
74658;SDS011;63186;51.204;6.536;2022-12-29T11:36:08;8.38;;;1.65;;
74658;SDS011;63186;51.204;6.536;2022-12-29T11:38:39;8.27;;;1.83;;
74658;SDS011;63186;51.204;6.536;2022-12-29T11:41:10;6.32;;;1.10;;
74658;SDS011;63186;51.204;6.536;2022-12-29T11:43:38;3.60;;;1.25;;
74658;SDS011;63186;51.204;6.536;2022-12-29T11:46:06;6.65;;;1.23;;
74658;SDS011;63186;51.204;6.536;2022-12-29T11:48:41;7.78;;;1.48;;
74658;SDS011;63186;51.204;6.536;2022-12-29T11:51:07;5.82;;;1.33;;
74658;SDS011;63186;51.204;6.536;2022-12-29T11:53:41;5.38;;;1.10;;
74658;SDS011;63186;51.204;6.536;2022-12-29T11:56:12;5.65;;;1.10;;
74658;SDS011;63186;51.204;6.536;2022-12-29T11:58:40;6.05;;;1.25;;
74658;SDS011;63186;51.204;6.536;2022-12-29T12:04:01;7.65;;;1.17;;
74658;SDS011;63186;51.204;6.536;2022-12-29T12:06:30;5.60;;;1.20;;
74658;SDS011;63186;51.204;6.536;2022-12-29T12:09:01;4.45;;;0.77;;
74658;SDS011;63186;51.204;6.536;2022-12-29T12:11:32;6.25;;;1.60;;
74658;SDS011;63186;51.204;6.536;2022-12-29T12:14:14;3.83;;;1.15;;
74658;SDS011;63186;51.204;6.536;2022-12-29T12:16:59;5.68;;;1.60;;
74658;SDS011;63186;51.204;6.536;2022-12-29T12:22:04;5.95;;;1.00;;
74658;SDS011;63186;51.204;6.536;2022-12-29T12:27:29;6.85;;;1.40;;
74658;SDS011;63186;51.204;6.536;2022-12-29T12:30:14;5.22;;;1.13;;
74658;SDS011;63186;51.204;6.536;2022-12-29T12:33:25;4.63;;;1.02;;
74658;SDS011;63186;51.204;6.536;2022-12-29T12:38:54;7.65;;;1.02;;
74658;SDS011;63186;51.204;6.536;2022-12-29T12:44:06;6.93;;;1.42;;
74658;SDS011;63186;51.204;6.536;2022-12-29T12:52:24;4.03;;;1.10;;
74658;SDS011;63186;51.204;6.536;2022-12-29T12:58:03;11.15;;;1.90;;
74658;SDS011;63186;51.204;6.536;2022-12-29T13:00:33;4.50;;;0.93;;
74658;SDS011;63186;51.204;6.536;2022-12-29T13:03:41;4.03;;;0.90;;
74658;SDS011;63186;51.204;6.536;2022-12-29T13:11:53;6.25;;;1.17;;
74658;SDS011;63186;51.204;6.536;2022-12-29T13:22:41;6.38;;;1.50;;
74658;SDS011;63186;51.204;6.536;2022-12-29T13:25:34;6.35;;;1.00;;
74658;SDS011;63186;51.204;6.536;2022-12-29T13:28:19;5.90;;;1.42;;
74658;SDS011;63186;51.204;6.536;2022-12-29T13:30:56;5.53;;;1.73;;
74658;SDS011;63186;51.204;6.536;2022-12-29T13:33:33;4.68;;;1.20;;
74658;SDS011;63186;51.204;6.536;2022-12-29T13:36:11;8.20;;;1.60;;
74658;SDS011;63186;51.204;6.536;2022-12-29T13:41:41;5.80;;;0.90;;
74658;SDS011;63186;51.204;6.536;2022-12-29T13:44:15;5.95;;;1.13;;
74658;SDS011;63186;51.204;6.536;2022-12-29T13:46:45;4.03;;;0.95;;
74658;SDS011;63186;51.204;6.536;2022-12-29T13:49:13;5.78;;;1.08;;
74658;SDS011;63186;51.204;6.536;2022-12-29T13:51:46;7.85;;;1.58;;
74658;SDS011;63186;51.204;6.536;2022-12-29T13:54:26;4.47;;;0.90;;
74658;SDS011;63186;51.204;6.536;2022-12-29T13:59:30;6.10;;;1.13;;
74658;SDS011;63186;51.204;6.536;2022-12-29T14:04:54;4.45;;;1.10;;
74658;SDS011;63186;51.204;6.536;2022-12-29T14:07:25;3.80;;;0.90;;
74658;SDS011;63186;51.204;6.536;2022-12-29T14:09:52;6.18;;;1.33;;
74658;SDS011;63186;51.204;6.536;2022-12-29T14:17:34;5.70;;;1.33;;
74658;SDS011;63186;51.204;6.536;2022-12-29T14:20:01;6.05;;;1.20;;
74658;SDS011;63186;51.204;6.536;2022-12-29T14:22:28;7.60;;;1.38;;
74658;SDS011;63186;51.204;6.536;2022-12-29T14:24:54;7.43;;;1.88;;
74658;SDS011;63186;51.204;6.536;2022-12-29T14:29:45;8.45;;;1.42;;
74658;SDS011;63186;51.204;6.536;2022-12-29T14:34:51;7.38;;;1.98;;
74658;SDS011;63186;51.204;6.536;2022-12-29T14:37:30;8.25;;;1.67;;
74658;SDS011;63186;51.204;6.536;2022-12-29T14:42:31;6.43;;;1.52;;
74658;SDS011;63186;51.204;6.536;2022-12-29T14:45:59;7.72;;;1.40;;
74658;SDS011;63186;51.204;6.536;2022-12-29T14:47:57;9.30;;;1.70;;
74658;SDS011;63186;51.204;6.536;2022-12-29T14:50:25;10.60;;;2.05;;
74658;SDS011;63186;51.204;6.536;2022-12-29T14:53:03;3.17;;;1.30;;
74658;SDS011;63186;51.204;6.536;2022-12-29T14:58:01;6.90;;;1.50;;
74658;SDS011;63186;51.204;6.536;2022-12-29T15:00:30;2.25;;;1.02;;
74658;SDS011;63186;51.204;6.536;2022-12-29T15:05:58;7.35;;;1.40;;
74658;SDS011;63186;51.204;6.536;2022-12-29T15:08:30;6.97;;;1.60;;
74658;SDS011;63186;51.204;6.536;2022-12-29T15:13:44;3.88;;;1.02;;
74658;SDS011;63186;51.204;6.536;2022-12-29T15:19:05;7.50;;;1.55;;
74658;SDS011;63186;51.204;6.536;2022-12-29T15:21:46;5.28;;;1.48;;
74658;SDS011;63186;51.204;6.536;2022-12-29T15:24:12;5.75;;;1.15;;
74658;SDS011;63186;51.204;6.536;2022-12-29T15:26:42;6.10;;;1.33;;
74658;SDS011;63186;51.204;6.536;2022-12-29T15:29:32;4.78;;;1.02;;
74658;SDS011;63186;51.204;6.536;2022-12-29T15:34:40;5.60;;;1.15;;
74658;SDS011;63186;51.204;6.536;2022-12-29T15:37:06;5.45;;;1.17;;
74658;SDS011;63186;51.204;6.536;2022-12-29T15:39:33;6.03;;;1.83;;
74658;SDS011;63186;51.204;6.536;2022-12-29T15:44:53;5.68;;;1.30;;
74658;SDS011;63186;51.204;6.536;2022-12-29T15:47:20;3.83;;;1.15;;
74658;SDS011;63186;51.204;6.536;2022-12-29T15:49:49;4.85;;;1.25;;
74658;SDS011;63186;51.204;6.536;2022-12-29T15:52:18;5.93;;;1.85;;
74658;SDS011;63186;51.204;6.536;2022-12-29T15:54:45;8.70;;;1.67;;
74658;SDS011;63186;51.204;6.536;2022-12-29T15:57:22;6.00;;;2.75;;
74658;SDS011;63186;51.204;6.536;2022-12-29T16:02:19;5.82;;;1.95;;
74658;SDS011;63186;51.204;6.536;2022-12-29T16:04:46;5.38;;;1.27;;
74658;SDS011;63186;51.204;6.536;2022-12-29T16:09:54;6.20;;;1.85;;
74658;SDS011;63186;51.204;6.536;2022-12-29T16:12:25;7.57;;;1.27;;
74658;SDS011;63186;51.204;6.536;2022-12-29T16:14:59;8.52;;;2.00;;
74658;SDS011;63186;51.204;6.536;2022-12-29T16:17:27;6.28;;;1.52;;
74658;SDS011;63186;51.204;6.536;2022-12-29T16:22:32;8.13;;;1.50;;
74658;SDS011;63186;51.204;6.536;2022-12-29T16:25:02;4.93;;;1.52;;
74658;SDS011;63186;51.204;6.536;2022-12-29T16:27:32;8.27;;;1.40;;
74658;SDS011;63186;51.204;6.536;2022-12-29T16:30:04;12.32;;;2.17;;
74658;SDS011;63186;51.204;6.536;2022-12-29T16:32:51;7.38;;;1.63;;
74658;SDS011;63186;51.204;6.536;2022-12-29T16:35:22;2.80;;;0.82;;
74658;SDS011;63186;51.204;6.536;2022-12-29T16:43:25;5.82;;;1.45;;
74658;SDS011;63186;51.204;6.536;2022-12-29T16:48:19;4.22;;;1.23;;
74658;SDS011;63186;51.204;6.536;2022-12-29T16:50:46;5.05;;;0.82;;
74658;SDS011;63186;51.204;6.536;2022-12-29T16:53:21;8.13;;;2.70;;
74658;SDS011;63186;51.204;6.536;2022-12-29T16:55:51;7.10;;;1.75;;
74658;SDS011;63186;51.204;6.536;2022-12-29T16:58:18;9.73;;;1.85;;
74658;SDS011;63186;51.204;6.536;2022-12-29T17:00:47;10.32;;;2.20;;
74658;SDS011;63186;51.204;6.536;2022-12-29T17:03:12;7.82;;;1.58;;
74658;SDS011;63186;51.204;6.536;2022-12-29T17:05:39;5.97;;;1.50;;
74658;SDS011;63186;51.204;6.536;2022-12-29T17:08:14;7.47;;;1.80;;
74658;SDS011;63186;51.204;6.536;2022-12-29T17:10:47;5.88;;;1.52;;
74658;SDS011;63186;51.204;6.536;2022-12-29T17:13:33;6.05;;;1.80;;
74658;SDS011;63186;51.204;6.536;2022-12-29T17:15:58;9.50;;;2.85;;
74658;SDS011;63186;51.204;6.536;2022-12-29T17:18:24;8.90;;;2.13;;
74658;SDS011;63186;51.204;6.536;2022-12-29T17:20:49;12.75;;;2.65;;
74658;SDS011;63186;51.204;6.536;2022-12-29T17:23:15;10.87;;;2.23;;